Terminal Aerodrome Forecast
Issued by NWS

Home | Current Version | Previous Version | Graphics & Text | Print | Product List | Glossary On
Versions: 1 2 3 4 5 6 7 8 9 10 11 12 13 14 15 16 17 18 19 20 21
000
FTUS43 KICT 220520
TAFRSL
TAF
KRSL 220520Z 2206/2306 01007KT P6SM VCSH SCT005 OVC040
      TEMPO 2206/2209 4SM -SHRA BR BKN025
     FM220900 36007KT P6SM OVC040
     FM221400 34012KT P6SM OVC100
     FM221900 03012KT P6SM BKN090
     FM230300 05005KT P6SM SCT200=

USA.gov is the U.S. government's official web portal to all federal, state and local government web resources and services.